sensor_id;sensor_type;location;lat;lon;timestamp;P1;durP1;ratioP1;P2;durP2;ratioP2
4353;SDS011;11018;51.258;6.806;2022-11-14T00:00:26;19.50;;;10.88;;
4353;SDS011;11018;51.258;6.806;2022-11-14T00:02:52;24.45;;;13.63;;
4353;SDS011;11018;51.258;6.806;2022-11-14T00:05:18;19.50;;;11.30;;
4353;SDS011;11018;51.258;6.806;2022-11-14T00:07:44;29.07;;;15.93;;
4353;SDS011;11018;51.258;6.806;2022-11-14T00:10:11;19.30;;;12.40;;
4353;SDS011;11018;51.258;6.806;2022-11-14T00:12:37;25.08;;;13.30;;
4353;SDS011;11018;51.258;6.806;2022-11-14T00:15:03;18.77;;;11.43;;
4353;SDS011;11018;51.258;6.806;2022-11-14T00:17:29;19.65;;;12.57;;
4353;SDS011;11018;51.258;6.806;2022-11-14T00:19:54;21.80;;;11.80;;
4353;SDS011;11018;51.258;6.806;2022-11-14T00:22:20;19.93;;;11.83;;
4353;SDS011;11018;51.258;6.806;2022-11-14T00:24:45;18.93;;;11.73;;
4353;SDS011;11018;51.258;6.806;2022-11-14T00:27:11;21.60;;;11.70;;
4353;SDS011;11018;51.258;6.806;2022-11-14T00:29:37;21.50;;;11.87;;
4353;SDS011;11018;51.258;6.806;2022-11-14T00:32:02;24.27;;;12.83;;
4353;SDS011;11018;51.258;6.806;2022-11-14T00:34:28;20.80;;;12.13;;
4353;SDS011;11018;51.258;6.806;2022-11-14T00:36:53;12.30;;;8.33;;
4353;SDS011;11018;51.258;6.806;2022-11-14T00:39:19;14.80;;;9.43;;
4353;SDS011;11018;51.258;6.806;2022-11-14T00:41:45;18.43;;;10.53;;
4353;SDS011;11018;51.258;6.806;2022-11-14T00:44:10;13.47;;;7.60;;
4353;SDS011;11018;51.258;6.806;2022-11-14T00:46:36;12.40;;;7.90;;
4353;SDS011;11018;51.258;6.806;2022-11-14T00:49:02;11.48;;;7.45;;
4353;SDS011;11018;51.258;6.806;2022-11-14T00:51:28;11.75;;;7.30;;
4353;SDS011;11018;51.258;6.806;2022-11-14T00:53:54;12.90;;;7.60;;
4353;SDS011;11018;51.258;6.806;2022-11-14T00:56:19;11.10;;;7.05;;
4353;SDS011;11018;51.258;6.806;2022-11-14T00:58:45;14.82;;;8.80;;
4353;SDS011;11018;51.258;6.806;2022-11-14T01:01:10;12.70;;;7.40;;
4353;SDS011;11018;51.258;6.806;2022-11-14T01:03:36;11.63;;;7.87;;
4353;SDS011;11018;51.258;6.806;2022-11-14T01:06:03;14.50;;;8.00;;
4353;SDS011;11018;51.258;6.806;2022-11-14T01:08:31;13.15;;;7.20;;
4353;SDS011;11018;51.258;6.806;2022-11-14T01:10:57;10.95;;;6.30;;
4353;SDS011;11018;51.258;6.806;2022-11-14T01:13:24;10.27;;;7.10;;
4353;SDS011;11018;51.258;6.806;2022-11-14T01:15:50;11.70;;;7.93;;
4353;SDS011;11018;51.258;6.806;2022-11-14T01:18:17;11.45;;;7.20;;
4353;SDS011;11018;51.258;6.806;2022-11-14T01:20:45;7.70;;;5.70;;
4353;SDS011;11018;51.258;6.806;2022-11-14T01:23:12;11.10;;;7.00;;
4353;SDS011;11018;51.258;6.806;2022-11-14T01:25:39;9.73;;;6.60;;
4353;SDS011;11018;51.258;6.806;2022-11-14T01:28:13;10.05;;;6.18;;
4353;SDS011;11018;51.258;6.806;2022-11-14T01:30:42;9.57;;;5.80;;
4353;SDS011;11018;51.258;6.806;2022-11-14T01:33:08;11.40;;;6.70;;
4353;SDS011;11018;51.258;6.806;2022-11-14T01:35:35;13.20;;;7.10;;
4353;SDS011;11018;51.258;6.806;2022-11-14T01:38:03;11.23;;;6.30;;
4353;SDS011;11018;51.258;6.806;2022-11-14T01:40:30;12.77;;;7.80;;
4353;SDS011;11018;51.258;6.806;2022-11-14T01:45:51;8.68;;;6.47;;
4353;SDS011;11018;51.258;6.806;2022-11-14T01:48:26;14.35;;;7.60;;
4353;SDS011;11018;51.258;6.806;2022-11-14T01:53:40;11.35;;;6.90;;
4353;SDS011;11018;51.258;6.806;2022-11-14T01:56:07;15.18;;;7.38;;
4353;SDS011;11018;51.258;6.806;2022-11-14T01:58:36;11.63;;;7.90;;
4353;SDS011;11018;51.258;6.806;2022-11-14T02:01:04;12.68;;;8.20;;
4353;SDS011;11018;51.258;6.806;2022-11-14T02:03:30;14.40;;;8.95;;
4353;SDS011;11018;51.258;6.806;2022-11-14T02:05:57;13.45;;;7.90;;
4353;SDS011;11018;51.258;6.806;2022-11-14T02:08:24;12.38;;;7.85;;
4353;SDS011;11018;51.258;6.806;2022-11-14T02:10:50;17.30;;;9.63;;
4353;SDS011;11018;51.258;6.806;2022-11-14T02:13:16;14.40;;;8.90;;
4353;SDS011;11018;51.258;6.806;2022-11-14T02:15:41;17.17;;;8.30;;
4353;SDS011;11018;51.258;6.806;2022-11-14T02:18:07;14.93;;;8.60;;
4353;SDS011;11018;51.258;6.806;2022-11-14T02:20:36;14.33;;;8.03;;
4353;SDS011;11018;51.258;6.806;2022-11-14T02:23:07;12.80;;;8.10;;
4353;SDS011;11018;51.258;6.806;2022-11-14T02:25:33;10.85;;;7.93;;
4353;SDS011;11018;51.258;6.806;2022-11-14T02:27:58;12.23;;;7.67;;
4353;SDS011;11018;51.258;6.806;2022-11-14T02:30:25;11.40;;;7.57;;
4353;SDS011;11018;51.258;6.806;2022-11-14T02:32:50;13.57;;;8.90;;
4353;SDS011;11018;51.258;6.806;2022-11-14T02:35:16;13.80;;;8.57;;
4353;SDS011;11018;51.258;6.806;2022-11-14T02:37:42;13.60;;;7.30;;
4353;SDS011;11018;51.258;6.806;2022-11-14T02:40:07;12.20;;;8.70;;
4353;SDS011;11018;51.258;6.806;2022-11-14T02:42:33;13.43;;;8.50;;
4353;SDS011;11018;51.258;6.806;2022-11-14T02:44:59;12.25;;;8.18;;
4353;SDS011;11018;51.258;6.806;2022-11-14T02:47:25;15.57;;;8.80;;
4353;SDS011;11018;51.258;6.806;2022-11-14T02:49:50;13.02;;;8.57;;
4353;SDS011;11018;51.258;6.806;2022-11-14T02:52:16;17.75;;;10.20;;
4353;SDS011;11018;51.258;6.806;2022-11-14T02:54:42;13.40;;;9.27;;
4353;SDS011;11018;51.258;6.806;2022-11-14T02:57:07;13.97;;;8.83;;
4353;SDS011;11018;51.258;6.806;2022-11-14T02:59:33;14.20;;;9.00;;
4353;SDS011;11018;51.258;6.806;2022-11-14T03:01:59;12.60;;;8.20;;
4353;SDS011;11018;51.258;6.806;2022-11-14T03:04:25;16.70;;;10.38;;
4353;SDS011;11018;51.258;6.806;2022-11-14T03:06:50;13.55;;;8.13;;
4353;SDS011;11018;51.258;6.806;2022-11-14T03:09:16;11.18;;;7.70;;
4353;SDS011;11018;51.258;6.806;2022-11-14T03:11:42;11.93;;;8.45;;
4353;SDS011;11018;51.258;6.806;2022-11-14T03:14:08;12.40;;;8.82;;
4353;SDS011;11018;51.258;6.806;2022-11-14T03:16:33;14.30;;;8.40;;
4353;SDS011;11018;51.258;6.806;2022-11-14T03:18:59;15.20;;;8.55;;
4353;SDS011;11018;51.258;6.806;2022-11-14T03:21:24;11.43;;;8.50;;
4353;SDS011;11018;51.258;6.806;2022-11-14T03:23:50;13.77;;;9.35;;
4353;SDS011;11018;51.258;6.806;2022-11-14T03:26:15;15.82;;;9.60;;
4353;SDS011;11018;51.258;6.806;2022-11-14T03:28:41;13.30;;;8.20;;
4353;SDS011;11018;51.258;6.806;2022-11-14T03:31:07;11.23;;;8.15;;
4353;SDS011;11018;51.258;6.806;2022-11-14T03:33:34;16.48;;;9.27;;
4353;SDS011;11018;51.258;6.806;2022-11-14T03:36:00;16.55;;;9.10;;
4353;SDS011;11018;51.258;6.806;2022-11-14T03:38:27;20.27;;;9.73;;
4353;SDS011;11018;51.258;6.806;2022-11-14T03:40:52;23.30;;;9.10;;
4353;SDS011;11018;51.258;6.806;2022-11-14T03:43:18;14.13;;;8.70;;
4353;SDS011;11018;51.258;6.806;2022-11-14T03:45:45;15.95;;;9.65;;
4353;SDS011;11018;51.258;6.806;2022-11-14T03:48:11;19.13;;;10.53;;
4353;SDS011;11018;51.258;6.806;2022-11-14T03:50:37;13.45;;;9.27;;
4353;SDS011;11018;51.258;6.806;2022-11-14T03:53:04;17.80;;;10.20;;
4353;SDS011;11018;51.258;6.806;2022-11-14T03:55:29;14.07;;;8.97;;
4353;SDS011;11018;51.258;6.806;2022-11-14T03:57:55;9.67;;;7.53;;
4353;SDS011;11018;51.258;6.806;2022-11-14T04:00:20;12.90;;;8.20;;
4353;SDS011;11018;51.258;6.806;2022-11-14T04:02:46;12.30;;;7.33;;
4353;SDS011;11018;51.258;6.806;2022-11-14T04:05:12;12.18;;;7.60;;
4353;SDS011;11018;51.258;6.806;2022-11-14T04:07:38;12.30;;;6.95;;
4353;SDS011;11018;51.258;6.806;2022-11-14T04:10:04;14.23;;;8.30;;
4353;SDS011;11018;51.258;6.806;2022-11-14T04:12:30;11.88;;;8.05;;
4353;SDS011;11018;51.258;6.806;2022-11-14T04:14:56;11.57;;;7.80;;
4353;SDS011;11018;51.258;6.806;2022-11-14T04:17:22;11.00;;;7.40;;
4353;SDS011;11018;51.258;6.806;2022-11-14T04:19:47;12.80;;;7.70;;
4353;SDS011;11018;51.258;6.806;2022-11-14T04:22:13;13.50;;;8.60;;
4353;SDS011;11018;51.258;6.806;2022-11-14T04:24:38;13.17;;;7.77;;
4353;SDS011;11018;51.258;6.806;2022-11-14T04:27:04;8.40;;;6.67;;
4353;SDS011;11018;51.258;6.806;2022-11-14T04:29:29;11.77;;;7.77;;
4353;SDS011;11018;51.258;6.806;2022-11-14T04:31:55;12.30;;;8.10;;
4353;SDS011;11018;51.258;6.806;2022-11-14T04:34:20;12.10;;;7.67;;
4353;SDS011;11018;51.258;6.806;2022-11-14T04:36:46;14.45;;;8.43;;
4353;SDS011;11018;51.258;6.806;2022-11-14T04:39:15;10.63;;;7.60;;
4353;SDS011;11018;51.258;6.806;2022-11-14T04:41:41;12.30;;;7.10;;
4353;SDS011;11018;51.258;6.806;2022-11-14T04:44:06;10.53;;;7.23;;
4353;SDS011;11018;51.258;6.806;2022-11-14T04:46:32;12.73;;;7.20;;
4353;SDS011;11018;51.258;6.806;2022-11-14T04:48:57;11.00;;;8.20;;
4353;SDS011;11018;51.258;6.806;2022-11-14T04:51:23;11.13;;;7.03;;
4353;SDS011;11018;51.258;6.806;2022-11-14T04:53:48;12.38;;;8.00;;
4353;SDS011;11018;51.258;6.806;2022-11-14T04:56:14;13.65;;;7.40;;
4353;SDS011;11018;51.258;6.806;2022-11-14T04:58:39;15.80;;;7.88;;
4353;SDS011;11018;51.258;6.806;2022-11-14T05:01:08;14.35;;;8.95;;
4353;SDS011;11018;51.258;6.806;2022-11-14T05:03:35;13.13;;;8.70;;
4353;SDS011;11018;51.258;6.806;2022-11-14T05:06:00;11.02;;;7.40;;
4353;SDS011;11018;51.258;6.806;2022-11-14T05:08:27;12.00;;;8.35;;
4353;SDS011;11018;51.258;6.806;2022-11-14T05:10:52;14.07;;;9.00;;
4353;SDS011;11018;51.258;6.806;2022-11-14T05:13:18;14.00;;;8.70;;
4353;SDS011;11018;51.258;6.806;2022-11-14T05:15:43;12.23;;;8.55;;
4353;SDS011;11018;51.258;6.806;2022-11-14T05:18:09;10.57;;;7.30;;
4353;SDS011;11018;51.258;6.806;2022-11-14T05:20:35;11.43;;;7.30;;
4353;SDS011;11018;51.258;6.806;2022-11-14T05:23:00;12.53;;;7.53;;
4353;SDS011;11018;51.258;6.806;2022-11-14T05:25:26;11.70;;;7.97;;
4353;SDS011;11018;51.258;6.806;2022-11-14T05:27:51;11.85;;;8.05;;
4353;SDS011;11018;51.258;6.806;2022-11-14T05:30:17;13.38;;;8.43;;
4353;SDS011;11018;51.258;6.806;2022-11-14T05:32:43;12.90;;;8.30;;
4353;SDS011;11018;51.258;6.806;2022-11-14T05:35:08;12.20;;;8.55;;
4353;SDS011;11018;51.258;6.806;2022-11-14T05:37:34;11.00;;;7.77;;
4353;SDS011;11018;51.258;6.806;2022-11-14T05:40:00;11.50;;;7.90;;
4353;SDS011;11018;51.258;6.806;2022-11-14T05:42:26;12.13;;;7.28;;
4353;SDS011;11018;51.258;6.806;2022-11-14T05:44:52;13.05;;;8.20;;
4353;SDS011;11018;51.258;6.806;2022-11-14T05:47:18;14.40;;;8.93;;
4353;SDS011;11018;51.258;6.806;2022-11-14T05:49:44;17.00;;;9.50;;
4353;SDS011;11018;51.258;6.806;2022-11-14T05:52:09;18.90;;;9.13;;
4353;SDS011;11018;51.258;6.806;2022-11-14T05:54:35;12.88;;;8.43;;
4353;SDS011;11018;51.258;6.806;2022-11-14T05:57:01;12.80;;;8.35;;
4353;SDS011;11018;51.258;6.806;2022-11-14T05:59:27;12.43;;;8.45;;
4353;SDS011;11018;51.258;6.806;2022-11-14T06:01:53;12.98;;;8.80;;
4353;SDS011;11018;51.258;6.806;2022-11-14T06:04:18;13.80;;;8.05;;
4353;SDS011;11018;51.258;6.806;2022-11-14T06:06:44;18.27;;;8.48;;
4353;SDS011;11018;51.258;6.806;2022-11-14T06:09:10;30.88;;;10.18;;
4353;SDS011;11018;51.258;6.806;2022-11-14T06:11:35;21.57;;;9.57;;
4353;SDS011;11018;51.258;6.806;2022-11-14T06:14:01;20.63;;;9.23;;
4353;SDS011;11018;51.258;6.806;2022-11-14T06:16:27;13.80;;;9.57;;
4353;SDS011;11018;51.258;6.806;2022-11-14T06:18:54;14.23;;;8.73;;
4353;SDS011;11018;51.258;6.806;2022-11-14T06:21:20;16.85;;;9.73;;
4353;SDS011;11018;51.258;6.806;2022-11-14T06:23:48;16.38;;;9.23;;
4353;SDS011;11018;51.258;6.806;2022-11-14T06:28:45;18.65;;;9.90;;
4353;SDS011;11018;51.258;6.806;2022-11-14T06:31:11;21.10;;;10.00;;
4353;SDS011;11018;51.258;6.806;2022-11-14T06:33:37;21.37;;;10.53;;
4353;SDS011;11018;51.258;6.806;2022-11-14T06:36:04;16.92;;;9.93;;
4353;SDS011;11018;51.258;6.806;2022-11-14T06:38:32;16.05;;;10.00;;
4353;SDS011;11018;51.258;6.806;2022-11-14T06:43:31;22.30;;;10.93;;
4353;SDS011;11018;51.258;6.806;2022-11-14T06:45:57;17.75;;;10.10;;
4353;SDS011;11018;51.258;6.806;2022-11-14T06:48:23;14.17;;;10.20;;
4353;SDS011;11018;51.258;6.806;2022-11-14T06:50:52;17.93;;;10.97;;
4353;SDS011;11018;51.258;6.806;2022-11-14T06:53:19;17.05;;;10.60;;
4353;SDS011;11018;51.258;6.806;2022-11-14T06:55:54;28.47;;;12.57;;
4353;SDS011;11018;51.258;6.806;2022-11-14T06:58:24;26.80;;;12.40;;
4353;SDS011;11018;51.258;6.806;2022-11-14T07:00:51;23.80;;;12.68;;
4353;SDS011;11018;51.258;6.806;2022-11-14T07:03:17;19.47;;;11.50;;
4353;SDS011;11018;51.258;6.806;2022-11-14T07:05:42;17.80;;;11.40;;
4353;SDS011;11018;51.258;6.806;2022-11-14T07:08:08;17.30;;;11.47;;
4353;SDS011;11018;51.258;6.806;2022-11-14T07:10:34;18.02;;;11.18;;
4353;SDS011;11018;51.258;6.806;2022-11-14T07:12:59;17.33;;;10.40;;
4353;SDS011;11018;51.258;6.806;2022-11-14T07:15:25;19.90;;;12.20;;
4353;SDS011;11018;51.258;6.806;2022-11-14T07:17:50;21.90;;;11.98;;
4353;SDS011;11018;51.258;6.806;2022-11-14T07:20:16;17.77;;;10.73;;
4353;SDS011;11018;51.258;6.806;2022-11-14T07:22:45;16.20;;;10.90;;
4353;SDS011;11018;51.258;6.806;2022-11-14T07:25:11;16.05;;;10.80;;
4353;SDS011;11018;51.258;6.806;2022-11-14T07:27:37;19.30;;;11.15;;
4353;SDS011;11018;51.258;6.806;2022-11-14T07:30:03;16.70;;;10.57;;
4353;SDS011;11018;51.258;6.806;2022-11-14T07:32:29;16.20;;;11.20;;
4353;SDS011;11018;51.258;6.806;2022-11-14T07:34:54;17.70;;;11.27;;
4353;SDS011;11018;51.258;6.806;2022-11-14T07:37:20;19.00;;;11.68;;
4353;SDS011;11018;51.258;6.806;2022-11-14T07:39:45;27.52;;;15.75;;
4353;SDS011;11018;51.258;6.806;2022-11-14T07:42:11;18.77;;;12.10;;
4353;SDS011;11018;51.258;6.806;2022-11-14T07:44:36;17.48;;;12.10;;
4353;SDS011;11018;51.258;6.806;2022-11-14T07:47:02;21.92;;;13.93;;
4353;SDS011;11018;51.258;6.806;2022-11-14T07:49:28;20.67;;;12.23;;
4353;SDS011;11018;51.258;6.806;2022-11-14T07:51:53;17.53;;;11.83;;
4353;SDS011;11018;51.258;6.806;2022-11-14T07:54:19;18.63;;;12.47;;
4353;SDS011;11018;51.258;6.806;2022-11-14T07:56:44;21.90;;;13.60;;
4353;SDS011;11018;51.258;6.806;2022-11-14T07:59:10;23.10;;;13.50;;
4353;SDS011;11018;51.258;6.806;2022-11-14T08:01:35;21.97;;;12.83;;
4353;SDS011;11018;51.258;6.806;2022-11-14T08:04:01;18.00;;;12.50;;
4353;SDS011;11018;51.258;6.806;2022-11-14T08:06:27;21.97;;;12.87;;
4353;SDS011;11018;51.258;6.806;2022-11-14T08:08:52;23.87;;;13.57;;
4353;SDS011;11018;51.258;6.806;2022-11-14T08:11:18;24.23;;;15.07;;
4353;SDS011;11018;51.258;6.806;2022-11-14T08:14:03;28.70;;;15.80;;
4353;SDS011;11018;51.258;6.806;2022-11-14T08:16:29;25.63;;;15.95;;
4353;SDS011;11018;51.258;6.806;2022-11-14T08:18:55;27.20;;;16.65;;
4353;SDS011;11018;51.258;6.806;2022-11-14T08:21:20;36.60;;;18.25;;
4353;SDS011;11018;51.258;6.806;2022-11-14T08:23:46;39.00;;;19.10;;
4353;SDS011;11018;51.258;6.806;2022-11-14T08:26:11;30.53;;;18.10;;
4353;SDS011;11018;51.258;6.806;2022-11-14T08:28:37;33.47;;;19.20;;
4353;SDS011;11018;51.258;6.806;2022-11-14T08:31:03;31.63;;;18.40;;
4353;SDS011;11018;51.258;6.806;2022-11-14T08:33:29;34.15;;;19.85;;
4353;SDS011;11018;51.258;6.806;2022-11-14T08:35:58;35.97;;;19.58;;
4353;SDS011;11018;51.258;6.806;2022-11-14T08:38:25;32.42;;;19.30;;
4353;SDS011;11018;51.258;6.806;2022-11-14T08:40:50;35.65;;;18.83;;
4353;SDS011;11018;51.258;6.806;2022-11-14T08:43:16;30.88;;;18.55;;
4353;SDS011;11018;51.258;6.806;2022-11-14T08:45:41;33.95;;;18.20;;
4353;SDS011;11018;51.258;6.806;2022-11-14T08:48:08;32.22;;;20.10;;
4353;SDS011;11018;51.258;6.806;2022-11-14T08:50:33;35.78;;;19.55;;
4353;SDS011;11018;51.258;6.806;2022-11-14T08:52:59;32.70;;;19.00;;
4353;SDS011;11018;51.258;6.806;2022-11-14T08:55:25;32.85;;;19.20;;
4353;SDS011;11018;51.258;6.806;2022-11-14T08:57:51;35.27;;;20.00;;
4353;SDS011;11018;51.258;6.806;2022-11-14T09:00:17;30.38;;;18.83;;
4353;SDS011;11018;51.258;6.806;2022-11-14T09:02:43;33.87;;;19.70;;
4353;SDS011;11018;51.258;6.806;2022-11-14T09:05:09;38.80;;;20.87;;
4353;SDS011;11018;51.258;6.806;2022-11-14T09:07:35;37.27;;;21.47;;
4353;SDS011;11018;51.258;6.806;2022-11-14T09:10:00;36.33;;;21.17;;
4353;SDS011;11018;51.258;6.806;2022-11-14T09:12:26;39.97;;;22.10;;
4353;SDS011;11018;51.258;6.806;2022-11-14T09:14:51;38.40;;;21.30;;
4353;SDS011;11018;51.258;6.806;2022-11-14T09:17:17;38.50;;;22.27;;
4353;SDS011;11018;51.258;6.806;2022-11-14T09:19:42;38.97;;;22.00;;
4353;SDS011;11018;51.258;6.806;2022-11-14T09:22:08;41.90;;;23.33;;
4353;SDS011;11018;51.258;6.806;2022-11-14T09:24:34;43.07;;;21.77;;
4353;SDS011;11018;51.258;6.806;2022-11-14T09:26:59;43.00;;;22.17;;
4353;SDS011;11018;51.258;6.806;2022-11-14T09:29:25;46.83;;;23.67;;
4353;SDS011;11018;51.258;6.806;2022-11-14T09:31:50;45.42;;;24.83;;
4353;SDS011;11018;51.258;6.806;2022-11-14T09:34:17;42.22;;;21.80;;
4353;SDS011;11018;51.258;6.806;2022-11-14T09:36:42;42.53;;;21.85;;
4353;SDS011;11018;51.258;6.806;2022-11-14T09:39:08;43.45;;;23.25;;
4353;SDS011;11018;51.258;6.806;2022-11-14T09:46:45;40.03;;;22.55;;
4353;SDS011;11018;51.258;6.806;2022-11-14T09:51:50;38.08;;;22.58;;
4353;SDS011;11018;51.258;6.806;2022-11-14T09:54:21;41.57;;;22.80;;
4353;SDS011;11018;51.258;6.806;2022-11-14T09:56:48;34.92;;;20.50;;
4353;SDS011;11018;51.258;6.806;2022-11-14T09:59:15;41.27;;;22.83;;
4353;SDS011;11018;51.258;6.806;2022-11-14T10:04:22;36.03;;;20.77;;
4353;SDS011;11018;51.258;6.806;2022-11-14T10:10:13;33.22;;;19.08;;
4353;SDS011;11018;51.258;6.806;2022-11-14T10:13:07;32.95;;;17.98;;
4353;SDS011;11018;51.258;6.806;2022-11-14T10:15:45;29.10;;;17.00;;
4353;SDS011;11018;51.258;6.806;2022-11-14T10:18:20;29.30;;;17.70;;
4353;SDS011;11018;51.258;6.806;2022-11-14T10:20:51;34.40;;;17.40;;
4353;SDS011;11018;51.258;6.806;2022-11-14T10:25:54;31.37;;;16.80;;
4353;SDS011;11018;51.258;6.806;2022-11-14T10:34:25;28.58;;;16.70;;
4353;SDS011;11018;51.258;6.806;2022-11-14T10:37:14;29.10;;;16.05;;
4353;SDS011;11018;51.258;6.806;2022-11-14T10:42:48;26.67;;;14.70;;
4353;SDS011;11018;51.258;6.806;2022-11-14T10:45:26;23.87;;;14.17;;
4353;SDS011;11018;51.258;6.806;2022-11-14T10:47:54;23.10;;;13.70;;
4353;SDS011;11018;51.258;6.806;2022-11-14T10:53:20;27.92;;;16.40;;
4353;SDS011;11018;51.258;6.806;2022-11-14T10:55:50;27.77;;;15.50;;
4353;SDS011;11018;51.258;6.806;2022-11-14T10:58:18;27.93;;;16.80;;
4353;SDS011;11018;51.258;6.806;2022-11-14T11:00:46;25.77;;;16.40;;
4353;SDS011;11018;51.258;6.806;2022-11-14T11:03:12;28.53;;;17.23;;
4353;SDS011;11018;51.258;6.806;2022-11-14T11:05:48;31.90;;;18.20;;
4353;SDS011;11018;51.258;6.806;2022-11-14T11:08:19;27.65;;;16.58;;
4353;SDS011;11018;51.258;6.806;2022-11-14T11:11:04;25.77;;;16.20;;
4353;SDS011;11018;51.258;6.806;2022-11-14T11:13:55;32.80;;;17.70;;
4353;SDS011;11018;51.258;6.806;2022-11-14T11:16:24;44.60;;;18.70;;
4353;SDS011;11018;51.258;6.806;2022-11-14T11:18:50;32.22;;;17.67;;
4353;SDS011;11018;51.258;6.806;2022-11-14T11:21:17;31.38;;;17.00;;
4353;SDS011;11018;51.258;6.806;2022-11-14T11:23:49;28.08;;;18.17;;
4353;SDS011;11018;51.258;6.806;2022-11-14T11:29:03;33.78;;;18.60;;
4353;SDS011;11018;51.258;6.806;2022-11-14T11:31:48;26.35;;;16.40;;
4353;SDS011;11018;51.258;6.806;2022-11-14T11:34:36;27.00;;;17.15;;
4353;SDS011;11018;51.258;6.806;2022-11-14T11:37:17;32.15;;;19.65;;
4353;SDS011;11018;51.258;6.806;2022-11-14T11:39:49;35.40;;;19.15;;
4353;SDS011;11018;51.258;6.806;2022-11-14T11:42:20;30.83;;;18.60;;
4353;SDS011;11018;51.258;6.806;2022-11-14T11:44:50;34.97;;;19.45;;
4353;SDS011;11018;51.258;6.806;2022-11-14T11:47:22;32.65;;;18.42;;
4353;SDS011;11018;51.258;6.806;2022-11-14T11:49:49;53.05;;;21.50;;
4353;SDS011;11018;51.258;6.806;2022-11-14T11:52:25;36.22;;;21.30;;
4353;SDS011;11018;51.258;6.806;2022-11-14T11:57:35;30.17;;;17.30;;
4353;SDS011;11018;51.258;6.806;2022-11-14T12:00:16;32.08;;;19.05;;
4353;SDS011;11018;51.258;6.806;2022-11-14T12:02:48;33.03;;;20.77;;
4353;SDS011;11018;51.258;6.806;2022-11-14T12:08:04;28.98;;;18.92;;
4353;SDS011;11018;51.258;6.806;2022-11-14T12:10:38;30.55;;;18.38;;
4353;SDS011;11018;51.258;6.806;2022-11-14T12:18:12;31.40;;;19.23;;
4353;SDS011;11018;51.258;6.806;2022-11-14T12:26:02;29.60;;;17.70;;
4353;SDS011;11018;51.258;6.806;2022-11-14T12:28:34;35.30;;;18.95;;
4353;SDS011;11018;51.258;6.806;2022-11-14T12:31:23;30.77;;;19.20;;
4353;SDS011;11018;51.258;6.806;2022-11-14T12:33:53;34.22;;;20.25;;
4353;SDS011;11018;51.258;6.806;2022-11-14T12:36:26;31.05;;;18.90;;
4353;SDS011;11018;51.258;6.806;2022-11-14T12:38:54;35.42;;;19.52;;
4353;SDS011;11018;51.258;6.806;2022-11-14T12:41:23;28.40;;;17.80;;
4353;SDS011;11018;51.258;6.806;2022-11-14T12:57:50;32.22;;;19.05;;
4353;SDS011;11018;51.258;6.806;2022-11-14T13:00:23;27.30;;;17.80;;
4353;SDS011;11018;51.258;6.806;2022-11-14T13:05:53;32.72;;;18.58;;
4353;SDS011;11018;51.258;6.806;2022-11-14T13:11:31;31.27;;;18.60;;
4353;SDS011;11018;51.258;6.806;2022-11-14T13:14:22;34.80;;;19.35;;
4353;SDS011;11018;51.258;6.806;2022-11-14T13:17:17;35.35;;;20.40;;
4353;SDS011;11018;51.258;6.806;2022-11-14T13:36:07;39.50;;;22.03;;
4353;SDS011;11018;51.258;6.806;2022-11-14T13:41:59;39.35;;;22.70;;
4353;SDS011;11018;51.258;6.806;2022-11-14T13:50:18;39.95;;;23.17;;
4353;SDS011;11018;51.258;6.806;2022-11-14T13:52:39;42.35;;;23.48;;
4353;SDS011;11018;51.258;6.806;2022-11-14T13:55:15;37.70;;;22.00;;
4353;SDS011;11018;51.258;6.806;2022-11-14T13:57:47;38.35;;;23.02;;
4353;SDS011;11018;51.258;6.806;2022-11-14T14:00:56;34.28;;;21.90;;
4353;SDS011;11018;51.258;6.806;2022-11-14T14:03:44;39.67;;;20.00;;
4353;SDS011;11018;51.258;6.806;2022-11-14T14:09:10;36.45;;;21.25;;
4353;SDS011;11018;51.258;6.806;2022-11-14T14:11:49;34.30;;;21.15;;
4353;SDS011;11018;51.258;6.806;2022-11-14T14:14:35;35.17;;;21.17;;
4353;SDS011;11018;51.258;6.806;2022-11-14T14:17:21;31.67;;;20.80;;
4353;SDS011;11018;51.258;6.806;2022-11-14T14:23:11;38.75;;;21.98;;
4353;SDS011;11018;51.258;6.806;2022-11-14T14:28:49;37.25;;;21.80;;
4353;SDS011;11018;51.258;6.806;2022-11-14T14:31:37;36.45;;;21.33;;
4353;SDS011;11018;51.258;6.806;2022-11-14T14:34:20;34.90;;;20.55;;
4353;SDS011;11018;51.258;6.806;2022-11-14T14:36:49;36.87;;;20.57;;
4353;SDS011;11018;51.258;6.806;2022-11-14T14:39:17;41.22;;;22.20;;
4353;SDS011;11018;51.258;6.806;2022-11-14T14:41:46;33.10;;;20.35;;
4353;SDS011;11018;51.258;6.806;2022-11-14T14:46:41;35.90;;;22.10;;
4353;SDS011;11018;51.258;6.806;2022-11-14T14:49:07;33.20;;;20.70;;
4353;SDS011;11018;51.258;6.806;2022-11-14T14:51:34;37.30;;;21.40;;
4353;SDS011;11018;51.258;6.806;2022-11-14T14:54:01;37.90;;;20.70;;
4353;SDS011;11018;51.258;6.806;2022-11-14T14:56:27;48.07;;;21.87;;
4353;SDS011;11018;51.258;6.806;2022-11-14T14:58:53;37.30;;;21.20;;
4353;SDS011;11018;51.258;6.806;2022-11-14T15:01:23;31.30;;;19.73;;
4353;SDS011;11018;51.258;6.806;2022-11-14T15:04:07;39.00;;;23.15;;
4353;SDS011;11018;51.258;6.806;2022-11-14T15:06:37;35.03;;;21.02;;
4353;SDS011;11018;51.258;6.806;2022-11-14T15:11:34;38.10;;;21.50;;
4353;SDS011;11018;51.258;6.806;2022-11-14T15:14:03;38.67;;;21.02;;
4353;SDS011;11018;51.258;6.806;2022-11-14T15:16:30;35.03;;;20.88;;
4353;SDS011;11018;51.258;6.806;2022-11-14T15:18:56;35.33;;;21.52;;
4353;SDS011;11018;51.258;6.806;2022-11-14T15:21:24;36.30;;;20.80;;
4353;SDS011;11018;51.258;6.806;2022-11-14T15:26:38;36.92;;;21.40;;
4353;SDS011;11018;51.258;6.806;2022-11-14T15:29:16;36.45;;;20.58;;
4353;SDS011;11018;51.258;6.806;2022-11-14T15:31:48;34.92;;;21.45;;
4353;SDS011;11018;51.258;6.806;2022-11-14T15:34:29;37.63;;;21.80;;
4353;SDS011;11018;51.258;6.806;2022-11-14T15:39:35;36.38;;;21.10;;
4353;SDS011;11018;51.258;6.806;2022-11-14T15:44:56;33.25;;;19.80;;
4353;SDS011;11018;51.258;6.806;2022-11-14T15:47:22;32.87;;;20.77;;
4353;SDS011;11018;51.258;6.806;2022-11-14T15:52:45;33.40;;;21.20;;
4353;SDS011;11018;51.258;6.806;2022-11-14T15:55:15;32.63;;;20.90;;
4353;SDS011;11018;51.258;6.806;2022-11-14T15:57:42;33.67;;;20.50;;
4353;SDS011;11018;51.258;6.806;2022-11-14T16:00:10;33.63;;;21.67;;
4353;SDS011;11018;51.258;6.806;2022-11-14T16:02:40;37.15;;;21.33;;
4353;SDS011;11018;51.258;6.806;2022-11-14T16:05:15;36.75;;;22.10;;
4353;SDS011;11018;51.258;6.806;2022-11-14T16:07:41;33.35;;;20.92;;
4353;SDS011;11018;51.258;6.806;2022-11-14T16:10:25;33.75;;;20.00;;
4353;SDS011;11018;51.258;6.806;2022-11-14T16:12:52;40.38;;;21.05;;
4353;SDS011;11018;51.258;6.806;2022-11-14T16:15:18;32.87;;;20.83;;
4353;SDS011;11018;51.258;6.806;2022-11-14T16:17:46;35.45;;;20.58;;
4353;SDS011;11018;51.258;6.806;2022-11-14T16:20:15;33.93;;;21.13;;
4353;SDS011;11018;51.258;6.806;2022-11-14T16:22:43;32.85;;;21.25;;
4353;SDS011;11018;51.258;6.806;2022-11-14T16:25:12;36.13;;;20.60;;
4353;SDS011;11018;51.258;6.806;2022-11-14T16:27:57;34.83;;;21.55;;
4353;SDS011;11018;51.258;6.806;2022-11-14T16:30:23;37.72;;;21.77;;
4353;SDS011;11018;51.258;6.806;2022-11-14T16:32:50;34.05;;;20.20;;
4353;SDS011;11018;51.258;6.806;2022-11-14T16:35:17;31.33;;;20.52;;
4353;SDS011;11018;51.258;6.806;2022-11-14T16:37:44;31.90;;;20.87;;
4353;SDS011;11018;51.258;6.806;2022-11-14T16:40:12;33.88;;;21.98;;
4353;SDS011;11018;51.258;6.806;2022-11-14T16:42:39;35.67;;;21.63;;
4353;SDS011;11018;51.258;6.806;2022-11-14T16:45:05;36.93;;;21.00;;
4353;SDS011;11018;51.258;6.806;2022-11-14T16:47:31;35.35;;;20.75;;
4353;SDS011;11018;51.258;6.806;2022-11-14T16:49:57;35.97;;;21.13;;
4353;SDS011;11018;51.258;6.806;2022-11-14T16:52:22;33.50;;;20.58;;
4353;SDS011;11018;51.258;6.806;2022-11-14T16:54:48;33.80;;;20.23;;